< < Back
Terminal Aerodrome Forecast


Current Version              Previous Versions:   1  2  3  4  5  6  7  8  9  

Terminal Aerodrome Forecast

930
FTUS42 KILM 291120
TAFILM
TAF
KILM 291120Z 2912/3012 VRB04KT P6SM FEW050 SCT250
     FM291300 05005KT P6SM BKN020
     FM291500 13007KT P6SM VCSH SCT050 SCT250
     FM300000 VRB04KT P6SM FEW250=



Latest METAR

781
SAUS70 KWBC 300300 RRA
MTRILM
METAR KILM 300253Z 20005KT 10SM CLR 25/21 A2997 RMK AO2 SLP150 T02500211
53008


USA.gov is the U.S. government's official web portal to all federal, state and local government web resources and services.